sensor_id;sensor_type;location;lat;lon;timestamp;P1;durP1;ratioP1;P2;durP2;ratioP2
37445;SDS011;23307;51.136;14.942;2023-09-08T00:02:04;10.65;;;7.30;;
37445;SDS011;23307;51.136;14.942;2023-09-08T00:04:30;9.45;;;7.45;;
37445;SDS011;23307;51.136;14.942;2023-09-08T00:06:58;8.05;;;6.82;;
37445;SDS011;23307;51.136;14.942;2023-09-08T00:09:23;7.90;;;6.90;;
37445;SDS011;23307;51.136;14.942;2023-09-08T00:11:49;8.05;;;6.82;;
37445;SDS011;23307;51.136;14.942;2023-09-08T00:14:14;8.90;;;7.55;;
37445;SDS011;23307;51.136;14.942;2023-09-08T00:16:40;7.90;;;7.10;;
37445;SDS011;23307;51.136;14.942;2023-09-08T00:19:08;9.73;;;7.55;;
37445;SDS011;23307;51.136;14.942;2023-09-08T00:21:34;9.02;;;7.15;;
37445;SDS011;23307;51.136;14.942;2023-09-08T00:24:01;8.15;;;7.20;;
37445;SDS011;23307;51.136;14.942;2023-09-08T00:26:26;8.80;;;7.20;;
37445;SDS011;23307;51.136;14.942;2023-09-08T00:28:52;7.75;;;6.88;;
37445;SDS011;23307;51.136;14.942;2023-09-08T00:31:17;9.52;;;7.80;;
37445;SDS011;23307;51.136;14.942;2023-09-08T00:33:43;7.68;;;6.47;;
37445;SDS011;23307;51.136;14.942;2023-09-08T00:36:09;7.85;;;6.97;;
37445;SDS011;23307;51.136;14.942;2023-09-08T00:38:35;9.77;;;7.18;;
37445;SDS011;23307;51.136;14.942;2023-09-08T00:41:00;8.35;;;7.20;;
37445;SDS011;23307;51.136;14.942;2023-09-08T00:43:26;7.70;;;6.95;;
37445;SDS011;23307;51.136;14.942;2023-09-08T00:45:52;9.75;;;6.97;;
37445;SDS011;23307;51.136;14.942;2023-09-08T00:48:20;9.65;;;6.95;;
37445;SDS011;23307;51.136;14.942;2023-09-08T00:50:48;12.07;;;7.30;;
37445;SDS011;23307;51.136;14.942;2023-09-08T00:53:13;8.27;;;6.30;;
37445;SDS011;23307;51.136;14.942;2023-09-08T00:55:39;9.88;;;6.63;;
37445;SDS011;23307;51.136;14.942;2023-09-08T00:58:06;8.70;;;6.43;;
37445;SDS011;23307;51.136;14.942;2023-09-08T01:00:32;9.32;;;6.85;;
37445;SDS011;23307;51.136;14.942;2023-09-08T01:02:58;7.72;;;6.20;;
37445;SDS011;23307;51.136;14.942;2023-09-08T01:05:24;8.93;;;6.53;;
37445;SDS011;23307;51.136;14.942;2023-09-08T01:07:51;8.38;;;6.40;;
37445;SDS011;23307;51.136;14.942;2023-09-08T01:10:18;8.55;;;6.70;;
37445;SDS011;23307;51.136;14.942;2023-09-08T01:12:44;8.40;;;6.70;;
37445;SDS011;23307;51.136;14.942;2023-09-08T01:15:09;8.38;;;6.15;;
37445;SDS011;23307;51.136;14.942;2023-09-08T01:17:35;7.05;;;6.35;;
37445;SDS011;23307;51.136;14.942;2023-09-08T01:20:14;8.45;;;6.45;;
37445;SDS011;23307;51.136;14.942;2023-09-08T01:25:52;7.15;;;5.85;;
37445;SDS011;23307;51.136;14.942;2023-09-08T01:28:22;7.97;;;7.18;;
37445;SDS011;23307;51.136;14.942;2023-09-08T01:30:48;11.15;;;7.28;;
37445;SDS011;23307;51.136;14.942;2023-09-08T01:33:15;8.00;;;7.10;;
37445;SDS011;23307;51.136;14.942;2023-09-08T01:35:42;7.72;;;6.57;;
37445;SDS011;23307;51.136;14.942;2023-09-08T01:38:08;7.35;;;6.40;;
37445;SDS011;23307;51.136;14.942;2023-09-08T01:40:34;9.43;;;6.32;;
37445;SDS011;23307;51.136;14.942;2023-09-08T01:43:00;8.40;;;6.75;;
37445;SDS011;23307;51.136;14.942;2023-09-08T01:45:26;9.15;;;7.60;;
37445;SDS011;23307;51.136;14.942;2023-09-08T01:47:51;9.05;;;7.63;;
37445;SDS011;23307;51.136;14.942;2023-09-08T01:50:17;9.93;;;7.68;;
37445;SDS011;23307;51.136;14.942;2023-09-08T01:52:47;8.93;;;7.47;;
37445;SDS011;23307;51.136;14.942;2023-09-08T01:55:14;8.82;;;6.88;;
37445;SDS011;23307;51.136;14.942;2023-09-08T01:57:41;9.77;;;7.85;;
37445;SDS011;23307;51.136;14.942;2023-09-08T02:00:07;10.18;;;7.90;;
37445;SDS011;23307;51.136;14.942;2023-09-08T02:02:34;14.93;;;7.63;;
37445;SDS011;23307;51.136;14.942;2023-09-08T02:04:59;9.52;;;7.82;;
37445;SDS011;23307;51.136;14.942;2023-09-08T02:07:26;8.85;;;7.70;;
37445;SDS011;23307;51.136;14.942;2023-09-08T02:09:51;8.77;;;7.22;;
37445;SDS011;23307;51.136;14.942;2023-09-08T02:12:18;9.43;;;7.25;;
37445;SDS011;23307;51.136;14.942;2023-09-08T02:14:43;7.38;;;6.68;;
37445;SDS011;23307;51.136;14.942;2023-09-08T02:17:09;8.43;;;6.72;;
37445;SDS011;23307;51.136;14.942;2023-09-08T02:19:35;11.00;;;7.47;;
37445;SDS011;23307;51.136;14.942;2023-09-08T02:22:01;9.73;;;7.65;;
37445;SDS011;23307;51.136;14.942;2023-09-08T02:24:27;7.30;;;6.57;;
37445;SDS011;23307;51.136;14.942;2023-09-08T02:26:54;8.32;;;6.78;;
37445;SDS011;23307;51.136;14.942;2023-09-08T02:29:19;8.75;;;6.97;;
37445;SDS011;23307;51.136;14.942;2023-09-08T02:31:45;9.65;;;6.63;;
37445;SDS011;23307;51.136;14.942;2023-09-08T02:34:11;9.35;;;7.38;;
37445;SDS011;23307;51.136;14.942;2023-09-08T02:36:37;7.45;;;6.70;;
37445;SDS011;23307;51.136;14.942;2023-09-08T02:39:04;8.50;;;7.35;;
37445;SDS011;23307;51.136;14.942;2023-09-08T02:41:29;8.10;;;6.78;;
37445;SDS011;23307;51.136;14.942;2023-09-08T02:43:55;7.60;;;6.78;;
37445;SDS011;23307;51.136;14.942;2023-09-08T02:46:21;9.20;;;7.32;;
37445;SDS011;23307;51.136;14.942;2023-09-08T02:48:48;7.22;;;6.50;;
37445;SDS011;23307;51.136;14.942;2023-09-08T02:51:13;8.45;;;6.63;;
37445;SDS011;23307;51.136;14.942;2023-09-08T02:53:39;7.45;;;6.60;;
37445;SDS011;23307;51.136;14.942;2023-09-08T02:56:05;9.82;;;7.07;;
37445;SDS011;23307;51.136;14.942;2023-09-08T02:58:31;6.82;;;6.15;;
37445;SDS011;23307;51.136;14.942;2023-09-08T03:01:10;7.57;;;6.50;;
37445;SDS011;23307;51.136;14.942;2023-09-08T03:03:38;7.00;;;5.90;;
37445;SDS011;23307;51.136;14.942;2023-09-08T03:06:04;7.10;;;6.40;;
37445;SDS011;23307;51.136;14.942;2023-09-08T03:08:30;7.75;;;5.60;;
37445;SDS011;23307;51.136;14.942;2023-09-08T03:10:56;6.18;;;5.57;;
37445;SDS011;23307;51.136;14.942;2023-09-08T03:13:23;7.80;;;5.55;;
37445;SDS011;23307;51.136;14.942;2023-09-08T03:15:51;8.13;;;5.30;;
37445;SDS011;23307;51.136;14.942;2023-09-08T03:18:17;5.60;;;5.00;;
37445;SDS011;23307;51.136;14.942;2023-09-08T03:20:47;5.28;;;4.85;;
37445;SDS011;23307;51.136;14.942;2023-09-08T03:23:16;4.88;;;4.47;;
37445;SDS011;23307;51.136;14.942;2023-09-08T03:25:42;4.75;;;4.35;;
37445;SDS011;23307;51.136;14.942;2023-09-08T03:28:08;4.53;;;4.13;;
37445;SDS011;23307;51.136;14.942;2023-09-08T03:30:33;4.40;;;4.00;;
37445;SDS011;23307;51.136;14.942;2023-09-08T03:32:59;4.55;;;4.15;;
37445;SDS011;23307;51.136;14.942;2023-09-08T03:35:25;4.45;;;4.05;;
37445;SDS011;23307;51.136;14.942;2023-09-08T03:37:50;7.40;;;4.68;;
37445;SDS011;23307;51.136;14.942;2023-09-08T03:40:16;9.50;;;4.43;;
37445;SDS011;23307;51.136;14.942;2023-09-08T03:42:41;6.43;;;4.80;;
37445;SDS011;23307;51.136;14.942;2023-09-08T03:45:08;4.65;;;4.25;;
37445;SDS011;23307;51.136;14.942;2023-09-08T03:47:33;4.72;;;4.32;;
37445;SDS011;23307;51.136;14.942;2023-09-08T03:49:59;4.47;;;4.15;;
37445;SDS011;23307;51.136;14.942;2023-09-08T03:52:25;5.93;;;4.85;;
37445;SDS011;23307;51.136;14.942;2023-09-08T03:54:51;4.97;;;4.57;;
37445;SDS011;23307;51.136;14.942;2023-09-08T03:57:16;5.22;;;4.72;;
37445;SDS011;23307;51.136;14.942;2023-09-08T03:59:42;6.00;;;4.90;;
37445;SDS011;23307;51.136;14.942;2023-09-08T04:02:09;4.90;;;4.50;;
37445;SDS011;23307;51.136;14.942;2023-09-08T04:04:35;4.88;;;4.47;;
37445;SDS011;23307;51.136;14.942;2023-09-08T04:07:00;5.53;;;4.30;;
37445;SDS011;23307;51.136;14.942;2023-09-08T04:09:26;4.97;;;4.57;;
37445;SDS011;23307;51.136;14.942;2023-09-08T04:11:53;4.18;;;3.88;;
37445;SDS011;23307;51.136;14.942;2023-09-08T04:14:20;4.70;;;4.30;;
37445;SDS011;23307;51.136;14.942;2023-09-08T04:16:48;4.35;;;3.95;;
37445;SDS011;23307;51.136;14.942;2023-09-08T04:19:14;4.63;;;4.22;;
37445;SDS011;23307;51.136;14.942;2023-09-08T04:21:40;4.28;;;3.90;;
37445;SDS011;23307;51.136;14.942;2023-09-08T04:24:06;4.82;;;4.43;;
37445;SDS011;23307;51.136;14.942;2023-09-08T04:26:35;5.60;;;4.45;;
37445;SDS011;23307;51.136;14.942;2023-09-08T04:29:01;5.47;;;4.32;;
37445;SDS011;23307;51.136;14.942;2023-09-08T04:31:26;5.53;;;3.92;;
37445;SDS011;23307;51.136;14.942;2023-09-08T04:33:53;4.47;;;3.97;;
37445;SDS011;23307;51.136;14.942;2023-09-08T04:36:19;4.45;;;3.90;;
37445;SDS011;23307;51.136;14.942;2023-09-08T04:38:45;4.18;;;3.78;;
37445;SDS011;23307;51.136;14.942;2023-09-08T04:41:10;4.50;;;4.10;;
37445;SDS011;23307;51.136;14.942;2023-09-08T04:43:36;3.97;;;3.67;;
37445;SDS011;23307;51.136;14.942;2023-09-08T04:46:02;4.70;;;4.30;;
37445;SDS011;23307;51.136;14.942;2023-09-08T04:48:28;4.32;;;3.60;;
37445;SDS011;23307;51.136;14.942;2023-09-08T04:50:54;4.18;;;3.88;;
37445;SDS011;23307;51.136;14.942;2023-09-08T04:53:22;3.80;;;3.50;;
37445;SDS011;23307;51.136;14.942;2023-09-08T04:55:48;5.60;;;3.53;;
37445;SDS011;23307;51.136;14.942;2023-09-08T04:58:14;5.68;;;4.20;;
37445;SDS011;23307;51.136;14.942;2023-09-08T05:00:39;4.45;;;4.05;;
37445;SDS011;23307;51.136;14.942;2023-09-08T05:03:05;4.97;;;4.45;;
37445;SDS011;23307;51.136;14.942;2023-09-08T05:05:31;6.97;;;4.32;;
37445;SDS011;23307;51.136;14.942;2023-09-08T05:07:57;4.82;;;4.30;;
37445;SDS011;23307;51.136;14.942;2023-09-08T05:10:23;4.93;;;4.40;;
37445;SDS011;23307;51.136;14.942;2023-09-08T05:12:49;5.20;;;3.92;;
37445;SDS011;23307;51.136;14.942;2023-09-08T05:15:15;4.60;;;4.20;;
37445;SDS011;23307;51.136;14.942;2023-09-08T05:17:41;5.07;;;4.57;;
37445;SDS011;23307;51.136;14.942;2023-09-08T05:20:07;5.15;;;4.25;;
37445;SDS011;23307;51.136;14.942;2023-09-08T05:22:33;5.30;;;4.50;;
37445;SDS011;23307;51.136;14.942;2023-09-08T05:24:59;4.90;;;4.50;;
37445;SDS011;23307;51.136;14.942;2023-09-08T05:27:24;6.47;;;4.50;;
37445;SDS011;23307;51.136;14.942;2023-09-08T05:29:50;7.35;;;4.60;;
37445;SDS011;23307;51.136;14.942;2023-09-08T05:32:16;6.28;;;4.90;;
37445;SDS011;23307;51.136;14.942;2023-09-08T05:34:41;6.03;;;5.43;;
37445;SDS011;23307;51.136;14.942;2023-09-08T05:37:07;6.40;;;5.80;;
37445;SDS011;23307;51.136;14.942;2023-09-08T05:39:33;6.78;;;6.13;;
37445;SDS011;23307;51.136;14.942;2023-09-08T05:41:59;9.50;;;7.10;;
37445;SDS011;23307;51.136;14.942;2023-09-08T05:44:25;7.85;;;6.38;;
37445;SDS011;23307;51.136;14.942;2023-09-08T05:46:50;10.50;;;6.05;;
37445;SDS011;23307;51.136;14.942;2023-09-08T05:49:16;6.55;;;5.90;;
37445;SDS011;23307;51.136;14.942;2023-09-08T05:51:43;6.47;;;5.22;;
37445;SDS011;23307;51.136;14.942;2023-09-08T05:54:10;8.50;;;5.75;;
37445;SDS011;23307;51.136;14.942;2023-09-08T05:56:36;7.85;;;5.93;;
37445;SDS011;23307;51.136;14.942;2023-09-08T05:59:02;6.72;;;5.60;;
37445;SDS011;23307;51.136;14.942;2023-09-08T06:01:28;8.88;;;6.22;;
37445;SDS011;23307;51.136;14.942;2023-09-08T06:03:55;7.47;;;6.13;;
37445;SDS011;23307;51.136;14.942;2023-09-08T06:06:21;8.02;;;6.15;;
37445;SDS011;23307;51.136;14.942;2023-09-08T06:08:47;8.20;;;6.40;;
37445;SDS011;23307;51.136;14.942;2023-09-08T06:11:13;8.27;;;6.22;;
37445;SDS011;23307;51.136;14.942;2023-09-08T06:13:40;8.05;;;6.72;;
37445;SDS011;23307;51.136;14.942;2023-09-08T06:16:05;6.63;;;5.80;;
37445;SDS011;23307;51.136;14.942;2023-09-08T06:18:31;9.52;;;6.60;;
37445;SDS011;23307;51.136;14.942;2023-09-08T06:20:56;9.23;;;6.00;;
37445;SDS011;23307;51.136;14.942;2023-09-08T06:23:22;7.30;;;6.32;;
37445;SDS011;23307;51.136;14.942;2023-09-08T06:25:48;10.43;;;6.00;;
37445;SDS011;23307;51.136;14.942;2023-09-08T06:28:14;6.53;;;5.93;;
37445;SDS011;23307;51.136;14.942;2023-09-08T06:30:39;6.88;;;6.18;;
37445;SDS011;23307;51.136;14.942;2023-09-08T06:33:07;6.93;;;6.32;;
37445;SDS011;23307;51.136;14.942;2023-09-08T06:35:34;11.43;;;6.20;;
37445;SDS011;23307;51.136;14.942;2023-09-08T06:37:59;7.22;;;6.32;;
37445;SDS011;23307;51.136;14.942;2023-09-08T06:40:25;8.15;;;6.30;;
37445;SDS011;23307;51.136;14.942;2023-09-08T06:42:51;7.97;;;6.40;;
37445;SDS011;23307;51.136;14.942;2023-09-08T06:45:16;6.85;;;5.82;;
37445;SDS011;23307;51.136;14.942;2023-09-08T06:47:43;10.32;;;7.07;;
37445;SDS011;23307;51.136;14.942;2023-09-08T06:50:09;8.75;;;6.60;;
37445;SDS011;23307;51.136;14.942;2023-09-08T06:52:35;7.00;;;6.30;;
37445;SDS011;23307;51.136;14.942;2023-09-08T06:55:01;10.40;;;6.97;;
37445;SDS011;23307;51.136;14.942;2023-09-08T06:57:27;8.02;;;6.53;;
37445;SDS011;23307;51.136;14.942;2023-09-08T06:59:53;8.55;;;6.30;;
37445;SDS011;23307;51.136;14.942;2023-09-08T07:02:18;11.15;;;6.38;;
37445;SDS011;23307;51.136;14.942;2023-09-08T07:04:44;6.63;;;6.03;;
37445;SDS011;23307;51.136;14.942;2023-09-08T07:07:11;10.18;;;6.55;;
37445;SDS011;23307;51.136;14.942;2023-09-08T07:09:36;6.57;;;5.85;;
37445;SDS011;23307;51.136;14.942;2023-09-08T07:12:05;9.50;;;6.10;;
37445;SDS011;23307;51.136;14.942;2023-09-08T07:14:31;6.20;;;5.63;;
37445;SDS011;23307;51.136;14.942;2023-09-08T07:16:57;7.35;;;5.88;;
37445;SDS011;23307;51.136;14.942;2023-09-08T07:19:23;8.05;;;5.63;;
37445;SDS011;23307;51.136;14.942;2023-09-08T07:21:52;6.70;;;6.00;;
37445;SDS011;23307;51.136;14.942;2023-09-08T07:24:18;6.97;;;5.80;;
37445;SDS011;23307;51.136;14.942;2023-09-08T07:26:43;7.38;;;5.82;;
37445;SDS011;23307;51.136;14.942;2023-09-08T07:29:09;6.82;;;5.95;;
37445;SDS011;23307;51.136;14.942;2023-09-08T07:31:36;7.05;;;5.88;;
37445;SDS011;23307;51.136;14.942;2023-09-08T07:34:03;8.32;;;6.15;;
37445;SDS011;23307;51.136;14.942;2023-09-08T07:36:29;7.38;;;6.40;;
37445;SDS011;23307;51.136;14.942;2023-09-08T07:38:55;9.68;;;6.20;;
37445;SDS011;23307;51.136;14.942;2023-09-08T07:41:21;8.48;;;6.72;;
37445;SDS011;23307;51.136;14.942;2023-09-08T07:43:46;6.95;;;6.13;;
37445;SDS011;23307;51.136;14.942;2023-09-08T07:46:12;8.23;;;6.07;;
37445;SDS011;23307;51.136;14.942;2023-09-08T07:48:38;9.30;;;6.38;;
37445;SDS011;23307;51.136;14.942;2023-09-08T07:51:04;7.20;;;5.82;;
37445;SDS011;23307;51.136;14.942;2023-09-08T07:53:30;9.15;;;6.28;;
37445;SDS011;23307;51.136;14.942;2023-09-08T07:55:56;7.25;;;5.72;;
37445;SDS011;23307;51.136;14.942;2023-09-08T07:58:22;8.27;;;5.10;;
37445;SDS011;23307;51.136;14.942;2023-09-08T08:00:48;11.07;;;5.80;;
37445;SDS011;23307;51.136;14.942;2023-09-08T08:03:14;8.43;;;5.97;;
37445;SDS011;23307;51.136;14.942;2023-09-08T08:05:40;10.38;;;5.88;;
37445;SDS011;23307;51.136;14.942;2023-09-08T08:08:05;6.93;;;6.07;;
37445;SDS011;23307;51.136;14.942;2023-09-08T08:10:32;8.48;;;6.70;;
37445;SDS011;23307;51.136;14.942;2023-09-08T08:12:59;8.60;;;6.75;;
37445;SDS011;23307;51.136;14.942;2023-09-08T08:15:37;6.47;;;5.80;;
37445;SDS011;23307;51.136;14.942;2023-09-08T08:18:06;7.55;;;6.20;;
37445;SDS011;23307;51.136;14.942;2023-09-08T08:20:37;10.82;;;6.60;;
37445;SDS011;23307;51.136;14.942;2023-09-08T08:23:03;7.85;;;7.05;;
37445;SDS011;23307;51.136;14.942;2023-09-08T08:25:30;7.20;;;6.47;;
37445;SDS011;23307;51.136;14.942;2023-09-08T08:27:56;8.70;;;6.10;;
37445;SDS011;23307;51.136;14.942;2023-09-08T08:30:24;6.57;;;5.40;;
37445;SDS011;23307;51.136;14.942;2023-09-08T08:32:50;7.97;;;5.43;;
37445;SDS011;23307;51.136;14.942;2023-09-08T08:35:18;7.93;;;5.40;;
37445;SDS011;23307;51.136;14.942;2023-09-08T08:37:45;8.05;;;5.25;;
37445;SDS011;23307;51.136;14.942;2023-09-08T08:40:11;6.30;;;5.40;;
37445;SDS011;23307;51.136;14.942;2023-09-08T08:42:38;6.32;;;5.20;;
37445;SDS011;23307;51.136;14.942;2023-09-08T08:45:04;5.80;;;5.10;;
37445;SDS011;23307;51.136;14.942;2023-09-08T08:47:31;9.15;;;4.90;;
37445;SDS011;23307;51.136;14.942;2023-09-08T08:49:57;5.80;;;5.05;;
37445;SDS011;23307;51.136;14.942;2023-09-08T08:52:23;6.43;;;4.50;;
37445;SDS011;23307;51.136;14.942;2023-09-08T08:54:50;5.82;;;4.60;;
37445;SDS011;23307;51.136;14.942;2023-09-08T08:57:17;6.75;;;4.88;;
37445;SDS011;23307;51.136;14.942;2023-09-08T08:59:44;6.78;;;4.70;;
37445;SDS011;23307;51.136;14.942;2023-09-08T09:02:11;8.95;;;4.72;;
37445;SDS011;23307;51.136;14.942;2023-09-08T09:04:39;6.20;;;4.90;;
37445;SDS011;23307;51.136;14.942;2023-09-08T09:07:05;8.30;;;4.80;;
37445;SDS011;23307;51.136;14.942;2023-09-08T09:09:32;6.72;;;4.88;;
37445;SDS011;23307;51.136;14.942;2023-09-08T09:11:58;6.15;;;4.68;;
37445;SDS011;23307;51.136;14.942;2023-09-08T09:14:24;8.40;;;4.63;;
37445;SDS011;23307;51.136;14.942;2023-09-08T09:16:50;7.55;;;4.63;;
37445;SDS011;23307;51.136;14.942;2023-09-08T09:19:20;5.60;;;4.60;;
37445;SDS011;23307;51.136;14.942;2023-09-08T09:21:52;5.18;;;4.28;;
37445;SDS011;23307;51.136;14.942;2023-09-08T09:24:33;6.53;;;4.65;;
37445;SDS011;23307;51.136;14.942;2023-09-08T09:27:03;5.88;;;4.63;;
37445;SDS011;23307;51.136;14.942;2023-09-08T09:29:34;5.85;;;4.22;;
37445;SDS011;23307;51.136;14.942;2023-09-08T09:32:11;6.32;;;4.47;;
37445;SDS011;23307;51.136;14.942;2023-09-08T09:34:47;4.72;;;4.22;;
37445;SDS011;23307;51.136;14.942;2023-09-08T09:37:14;7.43;;;4.13;;
37445;SDS011;23307;51.136;14.942;2023-09-08T09:39:39;5.93;;;4.20;;
37445;SDS011;23307;51.136;14.942;2023-09-08T09:42:05;6.00;;;4.28;;
37445;SDS011;23307;51.136;14.942;2023-09-08T09:44:31;7.53;;;4.15;;
37445;SDS011;23307;51.136;14.942;2023-09-08T09:46:57;6.72;;;4.28;;
37445;SDS011;23307;51.136;14.942;2023-09-08T09:49:26;5.93;;;4.70;;
37445;SDS011;23307;51.136;14.942;2023-09-08T09:51:57;9.00;;;4.50;;
37445;SDS011;23307;51.136;14.942;2023-09-08T09:54:23;4.35;;;3.95;;
37445;SDS011;23307;51.136;14.942;2023-09-08T09:56:50;4.82;;;4.00;;
37445;SDS011;23307;51.136;14.942;2023-09-08T09:59:17;4.40;;;3.97;;
37445;SDS011;23307;51.136;14.942;2023-09-08T10:01:43;6.05;;;4.00;;
37445;SDS011;23307;51.136;14.942;2023-09-08T10:04:11;5.70;;;3.95;;
37445;SDS011;23307;51.136;14.942;2023-09-08T10:06:40;5.25;;;3.80;;
37445;SDS011;23307;51.136;14.942;2023-09-08T10:09:06;4.07;;;3.67;;
37445;SDS011;23307;51.136;14.942;2023-09-08T10:11:41;7.57;;;4.20;;
37445;SDS011;23307;51.136;14.942;2023-09-08T10:14:14;5.18;;;3.80;;
37445;SDS011;23307;51.136;14.942;2023-09-08T10:16:40;7.50;;;4.10;;
37445;SDS011;23307;51.136;14.942;2023-09-08T10:19:10;5.35;;;3.92;;
37445;SDS011;23307;51.136;14.942;2023-09-08T10:21:38;10.15;;;4.57;;
37445;SDS011;23307;51.136;14.942;2023-09-08T10:24:13;7.10;;;3.88;;
37445;SDS011;23307;51.136;14.942;2023-09-08T10:26:43;5.35;;;3.90;;
37445;SDS011;23307;51.136;14.942;2023-09-08T10:29:12;5.05;;;3.95;;
37445;SDS011;23307;51.136;14.942;2023-09-08T10:31:38;4.68;;;3.80;;
37445;SDS011;23307;51.136;14.942;2023-09-08T10:34:05;5.82;;;4.10;;
37445;SDS011;23307;51.136;14.942;2023-09-08T10:36:31;6.53;;;3.72;;
37445;SDS011;23307;51.136;14.942;2023-09-08T10:49:56;4.93;;;3.78;;
37445;SDS011;23307;51.136;14.942;2023-09-08T10:52:25;6.45;;;4.10;;
37445;SDS011;23307;51.136;14.942;2023-09-08T10:54:52;8.25;;;3.72;;
37445;SDS011;23307;51.136;14.942;2023-09-08T10:57:23;5.95;;;3.70;;
37445;SDS011;23307;51.136;14.942;2023-09-08T10:59:53;6.80;;;3.92;;
37445;SDS011;23307;51.136;14.942;2023-09-08T11:02:40;6.80;;;4.00;;
37445;SDS011;23307;51.136;14.942;2023-09-08T11:05:13;7.68;;;3.65;;
37445;SDS011;23307;51.136;14.942;2023-09-08T11:07:40;6.65;;;3.53;;
37445;SDS011;23307;51.136;14.942;2023-09-08T11:10:08;3.70;;;3.40;;
37445;SDS011;23307;51.136;14.942;2023-09-08T11:12:34;7.75;;;3.72;;
37445;SDS011;23307;51.136;14.942;2023-09-08T11:15:05;4.00;;;3.60;;
37445;SDS011;23307;51.136;14.942;2023-09-08T11:17:33;6.80;;;3.42;;
37445;SDS011;23307;51.136;14.942;2023-09-08T11:20:04;4.22;;;3.38;;
37445;SDS011;23307;51.136;14.942;2023-09-08T11:22:35;5.55;;;3.47;;
37445;SDS011;23307;51.136;14.942;2023-09-08T11:25:03;6.25;;;3.63;;
37445;SDS011;23307;51.136;14.942;2023-09-08T11:27:33;3.72;;;3.15;;
37445;SDS011;23307;51.136;14.942;2023-09-08T11:29:58;5.00;;;3.25;;
37445;SDS011;23307;51.136;14.942;2023-09-08T11:32:25;4.60;;;3.50;;
37445;SDS011;23307;51.136;14.942;2023-09-08T11:35:01;5.85;;;3.08;;
37445;SDS011;23307;51.136;14.942;2023-09-08T11:37:34;5.13;;;3.10;;
37445;SDS011;23307;51.136;14.942;2023-09-08T11:40:04;4.28;;;3.30;;
37445;SDS011;23307;51.136;14.942;2023-09-08T11:42:40;6.80;;;3.40;;
37445;SDS011;23307;51.136;14.942;2023-09-08T11:45:17;3.38;;;3.05;;
37445;SDS011;23307;51.136;14.942;2023-09-08T11:47:46;3.67;;;3.20;;
37445;SDS011;23307;51.136;14.942;2023-09-08T11:50:14;3.97;;;2.95;;
37445;SDS011;23307;51.136;14.942;2023-09-08T11:52:44;3.35;;;2.95;;
37445;SDS011;23307;51.136;14.942;2023-09-08T11:55:14;3.10;;;2.80;;
37445;SDS011;23307;51.136;14.942;2023-09-08T11:57:40;3.33;;;2.80;;
37445;SDS011;23307;51.136;14.942;2023-09-08T12:00:08;3.30;;;3.00;;
37445;SDS011;23307;51.136;14.942;2023-09-08T12:02:39;4.80;;;3.22;;
37445;SDS011;23307;51.136;14.942;2023-09-08T12:05:13;3.78;;;3.20;;
37445;SDS011;23307;51.136;14.942;2023-09-08T12:07:50;3.30;;;3.00;;
37445;SDS011;23307;51.136;14.942;2023-09-08T12:10:17;3.17;;;2.80;;
37445;SDS011;23307;51.136;14.942;2023-09-08T12:12:44;3.50;;;3.20;;
37445;SDS011;23307;51.136;14.942;2023-09-08T12:15:11;3.60;;;3.05;;
37445;SDS011;23307;51.136;14.942;2023-09-08T12:17:54;6.57;;;3.30;;
37445;SDS011;23307;51.136;14.942;2023-09-08T12:20:20;3.40;;;3.10;;
37445;SDS011;23307;51.136;14.942;2023-09-08T12:22:47;3.30;;;3.00;;
37445;SDS011;23307;51.136;14.942;2023-09-08T12:25:17;3.33;;;2.90;;
37445;SDS011;23307;51.136;14.942;2023-09-08T12:27:44;3.25;;;2.95;;
37445;SDS011;23307;51.136;14.942;2023-09-08T12:30:18;3.80;;;2.80;;
37445;SDS011;23307;51.136;14.942;2023-09-08T12:32:46;3.53;;;3.08;;
37445;SDS011;23307;51.136;14.942;2023-09-08T12:35:20;3.05;;;2.80;;
37445;SDS011;23307;51.136;14.942;2023-09-08T12:37:47;5.25;;;2.85;;
37445;SDS011;23307;51.136;14.942;2023-09-08T12:40:27;4.30;;;3.03;;
37445;SDS011;23307;51.136;14.942;2023-09-08T12:42:56;3.70;;;3.00;;
37445;SDS011;23307;51.136;14.942;2023-09-08T12:45:23;4.63;;;3.13;;
37445;SDS011;23307;51.136;14.942;2023-09-08T12:47:50;3.00;;;2.80;;
37445;SDS011;23307;51.136;14.942;2023-09-08T12:50:16;3.35;;;3.05;;
37445;SDS011;23307;51.136;14.942;2023-09-08T12:52:43;3.28;;;2.97;;
37445;SDS011;23307;51.136;14.942;2023-09-08T12:55:09;3.50;;;3.00;;
37445;SDS011;23307;51.136;14.942;2023-09-08T12:57:35;3.60;;;3.03;;
37445;SDS011;23307;51.136;14.942;2023-09-08T13:00:03;4.72;;;3.03;;
37445;SDS011;23307;51.136;14.942;2023-09-08T13:02:30;3.30;;;3.00;;
37445;SDS011;23307;51.136;14.942;2023-09-08T13:04:58;3.05;;;2.75;;
37445;SDS011;23307;51.136;14.942;2023-09-08T13:07:23;3.30;;;3.00;;
37445;SDS011;23307;51.136;14.942;2023-09-08T13:09:49;3.13;;;2.83;;
37445;SDS011;23307;51.136;14.942;2023-09-08T13:12:15;3.30;;;3.00;;
37445;SDS011;23307;51.136;14.942;2023-09-08T13:14:41;3.08;;;2.78;;
37445;SDS011;23307;51.136;14.942;2023-09-08T13:17:09;3.67;;;2.90;;
37445;SDS011;23307;51.136;14.942;2023-09-08T13:19:40;3.72;;;3.20;;
37445;SDS011;23307;51.136;14.942;2023-09-08T13:22:08;2.97;;;2.70;;
37445;SDS011;23307;51.136;14.942;2023-09-08T13:24:33;3.55;;;3.17;;
37445;SDS011;23307;51.136;14.942;2023-09-08T13:27:00;3.58;;;3.28;;
37445;SDS011;23307;51.136;14.942;2023-09-08T13:29:26;3.60;;;3.20;;
37445;SDS011;23307;51.136;14.942;2023-09-08T13:31:52;4.18;;;3.08;;
37445;SDS011;23307;51.136;14.942;2023-09-08T13:34:19;4.55;;;3.00;;
37445;SDS011;23307;51.136;14.942;2023-09-08T13:36:46;4.63;;;3.38;;
37445;SDS011;23307;51.136;14.942;2023-09-08T13:39:12;5.38;;;3.35;;
37445;SDS011;23307;51.136;14.942;2023-09-08T13:41:50;4.43;;;3.03;;
37445;SDS011;23307;51.136;14.942;2023-09-08T13:44:18;4.95;;;3.25;;
37445;SDS011;23307;51.136;14.942;2023-09-08T13:46:50;3.28;;;3.03;;
37445;SDS011;23307;51.136;14.942;2023-09-08T13:49:17;5.75;;;3.10;;
37445;SDS011;23307;51.136;14.942;2023-09-08T13:51:43;4.40;;;2.97;;
37445;SDS011;23307;51.136;14.942;2023-09-08T13:54:10;3.50;;;3.20;;
37445;SDS011;23307;51.136;14.942;2023-09-08T13:56:38;4.63;;;3.08;;
37445;SDS011;23307;51.136;14.942;2023-09-08T13:59:06;3.58;;;2.90;;
37445;SDS011;23307;51.136;14.942;2023-09-08T14:01:33;3.22;;;2.95;;
37445;SDS011;23307;51.136;14.942;2023-09-08T14:03:59;3.40;;;3.05;;
37445;SDS011;23307;51.136;14.942;2023-09-08T14:06:25;4.30;;;2.90;;
37445;SDS011;23307;51.136;14.942;2023-09-08T14:08:52;3.45;;;2.88;;
37445;SDS011;23307;51.136;14.942;2023-09-08T14:11:18;4.35;;;3.10;;
37445;SDS011;23307;51.136;14.942;2023-09-08T14:13:44;6.20;;;3.20;;
37445;SDS011;23307;51.136;14.942;2023-09-08T14:16:11;3.92;;;3.00;;
37445;SDS011;23307;51.136;14.942;2023-09-08T14:18:37;3.40;;;2.88;;
37445;SDS011;23307;51.136;14.942;2023-09-08T14:21:04;5.15;;;2.58;;
37445;SDS011;23307;51.136;14.942;2023-09-08T14:23:31;5.75;;;3.10;;
37445;SDS011;23307;51.136;14.942;2023-09-08T14:25:59;4.88;;;2.80;;
37445;SDS011;23307;51.136;14.942;2023-09-08T14:28:24;4.07;;;2.83;;
37445;SDS011;23307;51.136;14.942;2023-09-08T14:30:51;3.45;;;3.15;;
37445;SDS011;23307;51.136;14.942;2023-09-08T14:33:17;3.20;;;2.90;;
37445;SDS011;23307;51.136;14.942;2023-09-08T14:35:43;3.85;;;3.17;;
37445;SDS011;23307;51.136;14.942;2023-09-08T14:38:12;3.00;;;2.80;;
37445;SDS011;23307;51.136;14.942;2023-09-08T14:40:37;3.78;;;3.15;;
37445;SDS011;23307;51.136;14.942;2023-09-08T14:43:03;3.38;;;3.08;;
37445;SDS011;23307;51.136;14.942;2023-09-08T14:45:29;3.60;;;3.17;;
37445;SDS011;23307;51.136;14.942;2023-09-08T14:47:56;3.78;;;2.97;;